Eems Trader — V2DE3 — position and weather

sailwx.info

Track history (hours):
 
Tides and Currents Weather Stations Pressure Air Temp Water Temp Dewpoint Dewpoint Depression Visibility Wind Speed Wind Dir Waves Ship Positions

Eems Trader

Last reported at 2015-Feb-14 12:27 UTC. Time now 2015-Mar-01 15:14 UTC.
Position N 38°45' E 008°51'.
Warning: this ship's position is 15 days out of date.

; draft 4.3 m.

Type: Cargo ship. MMSI: 305182000.

Date/timePositionNaut miles runAvg speedWind from/ knotsBaromVisibWave heightAir tempDewpointWater temp
2015-Feb-14 12:27N 38°45' E 008°51'240 8.8
2015-Feb-13 09:11N 41°33' E 005°07'105 8.8
2015-Feb-12 21:20N 42°46' E 003°26'23 8.1
2015-Feb-12 18:33N 43°01' E 003°03'0 0.0
2015-Feb-12 15:31N 43°01' E 003°03'0 0.0
2015-Feb-12 14:14N 43°01' E 003°03'0 0.0
2015-Feb-12 11:31N 43°01' E 003°03'0 0.0
2015-Feb-12 10:19N 43°01' E 003°03'0 0.0
2015-Feb-12 09:31N 43°01' E 003°03'0 0.0
2015-Feb-12 08:32N 43°01' E 003°03'0 0.0
2015-Feb-12 07:32N 43°01' E 003°03'0 0.0
2015-Feb-12 06:32N 43°01' E 003°03'3 2.9
2015-Feb-12 05:33N 43°01' E 003°07'0 0.4
2015-Feb-12 04:17N 43°01' E 003°08'0 0.0
2015-Feb-12 03:21N 43°01' E 003°08'0 0.0
2015-Feb-12 02:33N 43°01' E 003°08'0 0.0
2015-Feb-12 00:27N 43°01' E 003°08'0 0.0
2015-Feb-11 19:25N 43°01' E 003°08'0 0.0
2015-Feb-11 16:09N 43°01' E 003°07'0 0.0
2015-Feb-11 12:30N 43°01' E 003°07'0 0.0
2015-Feb-11 09:30N 43°01' E 003°07'0 0.0
2015-Feb-11 01:27N 43°01' E 003°07'0 0.0
2015-Feb-10 17:30N 43°01' E 003°08'0 0.0
2015-Feb-10 16:26N 43°01' E 003°08'3 1.5
2015-Feb-10 14:14N 43°01' E 003°03'0 0.0
2015-Feb-10 11:25N 43°01' E 003°03'0 0.0
2015-Feb-10 07:10N 43°01' E 003°03'0 0.0
2015-Feb-10 06:15N 43°01' E 003°03'0 0.2
2015-Feb-10 05:33N 43°01' E 003°03'3 2.9
2015-Feb-10 04:33N 42°59' E 003°06'0 0.0
2015-Feb-10 03:32N 42°59' E 003°06'0 0.0
2015-Feb-10 02:32N 42°59' E 003°06'0 0.0
2015-Feb-10 00:31N 42°59' E 003°06'0 0.1
2015-Feb-09 22:27N 42°59' E 003°06'17 8.6
2015-Feb-09 20:25N 43°02' E 003°30'9 8.8
2015-Feb-09 19:22N 43°05' E 003°42'11 9.1
2015-Feb-09 18:11N 43°07' E 003°57'6 9.2
2015-Feb-09 17:30N 43°09' E 004°05'10 9.7
2015-Feb-09 16:27N 43°12' E 004°18'10 9.6
2015-Feb-09 15:25N 43°14' E 004°31'9 9.4
2015-Feb-09 14:26N 43°17' E 004°44'8 9.6
2015-Feb-09 13:34N 43°19' E 004°55'6 5.9
2015-Feb-09 12:33N 43°25' E 004°51'0 0.1
2015-Feb-09 11:26N 43°25' E 004°51'0 0.0
2015-Feb-09 10:26N 43°25' E 004°51'0 0.0
2015-Feb-09 09:29N 43°25' E 004°51'0 0.0
2015-Feb-09 08:32N 43°25' E 004°51'0 0.0
2015-Feb-09 07:32N 43°25' E 004°51'0 0.0
2015-Feb-09 06:32N 43°25' E 004°51'0 0.0
2015-Feb-09 05:32N 43°25' E 004°51'0 0.0
2015-Feb-09 04:32N 43°25' E 004°51'0 0.0
2015-Feb-09 03:29N 43°25' E 004°51'0 0.0
2015-Feb-09 02:29N 43°25' E 004°51'0 0.1
2015-Feb-09 01:29N 43°25' E 004°51'0 0.0
2015-Feb-09 00:32N 43°25' E 004°51'0 0.0
2015-Feb-08 23:29N 43°25' E 004°51'0 0.0
2015-Feb-08 22:32N 43°25' E 004°51'0 0.0
2015-Feb-08 21:29N 43°25' E 004°51'0 0.0
2015-Feb-08 20:32N 43°25' E 004°51'0 0.0
2015-Feb-08 19:32N 43°25' E 004°51'0 0.0
2015-Feb-08 18:32N 43°25' E 004°51'0 0.0
2015-Feb-08 17:28N 43°25' E 004°51'0 0.0
2015-Feb-08 16:28N 43°25' E 004°51'0 0.0
2015-Feb-08 15:28N 43°25' E 004°51'0 0.0
2015-Feb-08 14:28N 43°25' E 004°51'0 0.0
2015-Feb-08 13:28N 43°25' E 004°51'0 0.0
2015-Feb-08 12:28N 43°25' E 004°51'0 0.0
2015-Feb-08 11:31N 43°25' E 004°51'0 0.0
2015-Feb-08 10:31N 43°25' E 004°51'0 0.0
2015-Feb-08 09:31N 43°25' E 004°51'0 0.0
2015-Feb-08 08:28N 43°25' E 004°51'0 0.0
2015-Feb-08 07:31N 43°25' E 004°51'0 0.0
2015-Feb-08 06:28N 43°25' E 004°51'0 0.0
2015-Feb-08 05:31N 43°25' E 004°51'0 0.0
2015-Feb-08 04:31N 43°25' E 004°51'0 0.0
2015-Feb-08 03:28N 43°25' E 004°51'0 0.0
2015-Feb-08 02:31N 43°25' E 004°51'0 0.0
2015-Feb-08 01:31N 43°25' E 004°51'0 0.0
2015-Feb-08 00:31N 43°25' E 004°51'0 0.0
2015-Feb-07 23:31N 43°25' E 004°51'0 0.0
2015-Feb-07 22:28N 43°25' E 004°51'0 0.0
2015-Feb-07 21:31N 43°25' E 004°51'0 0.0
2015-Feb-07 20:28N 43°25' E 004°51'0 0.0
2015-Feb-07 19:28N 43°25' E 004°51'0 0.0
2015-Feb-07 18:28N 43°25' E 004°51'0 0.0
2015-Feb-07 17:28N 43°25' E 004°51'0 0.0
2015-Feb-07 16:28N 43°25' E 004°51'0 0.1
2015-Feb-07 15:31N 43°25' E 004°51'0 0.0
2015-Feb-07 14:33N 43°25' E 004°51'8 7.6
2015-Feb-07 13:33N 43°20' E 004°59'11 8.7
2015-Feb-07 12:21N 43°12' E 005°09'35 8.7
2015-Feb-07 08:24N 43°01' E 005°54'4 4.8
2015-Feb-07 07:33N 43°05' E 005°56'2 2.1
2015-Feb-07 06:33N 43°06' E 005°53'0 0.0
2015-Feb-07 05:33N 43°06' E 005°53'0 0.0
2015-Feb-07 04:33N 43°06' E 005°53'0 0.0
2015-Feb-07 03:33N 43°06' E 005°53'0 0.0
2015-Feb-07 02:33N 43°06' E 005°53'0 0.0
2015-Feb-07 01:33N 43°06' E 005°53'0 0.0
2015-Feb-07 00:33N 43°06' E 005°53'0 0.0
2015-Feb-06 23:32N 43°06' E 005°53'0 0.0
2015-Feb-06 22:32N 43°06' E 005°53'0 0.0
2015-Feb-06 21:32N 43°06' E 005°53'0 0.0
2015-Feb-06 20:32N 43°06' E 005°53'0 0.0
2015-Feb-06 19:32N 43°06' E 005°53'0 0.0
2015-Feb-06 18:32N 43°06' E 005°53'0 0.0
2015-Feb-06 17:32N 43°06' E 005°53'0 0.0
2015-Feb-06 16:32N 43°06' E 005°53'0 0.0
2015-Feb-06 15:32N 43°06' E 005°53'0 0.0
2015-Feb-06 14:32N 43°06' E 005°53'0 0.0
2015-Feb-06 13:32N 43°06' E 005°53'0 0.0
2015-Feb-06 12:32N 43°06' E 005°53'2 1.9
2015-Feb-06 11:33N 43°05' E 005°55'25 6.4
2015-Feb-06 07:33N 42°59' E 006°29'9 8.7
2015-Feb-06 06:33N 43°04' E 006°38'8 7.6
2015-Feb-06 05:33N 43°10' E 006°45'7 7.5
2015-Feb-06 04:33N 43°15' E 006°52'8 8.1
2015-Feb-06 03:34N 43°21' E 006°60'8 7.7
2015-Feb-06 02:33N 43°26' E 007°08'8 8.3
2015-Feb-06 01:34N 43°30' E 007°18'8 8.1
2015-Feb-06 00:32N 43°35' E 007°28'8 7.7
2015-Feb-05 23:27N 43°39' E 007°38'48 8.0
2015-Feb-05 17:24N 44°10' E 008°29'8 9.2
2015-Feb-05 16:33N 44°13' E 008°39'9 9.5
2015-Feb-05 15:33N 44°17' E 008°51'8 7.5
2015-Feb-05 14:34N 44°23' E 008°57'2 1.3
2015-Feb-05 13:18N 44°24' E 008°54'0 0.0
2015-Feb-05 11:24N 44°24' E 008°55'0 0.0
2015-Feb-05 10:21N 44°24' E 008°54'0 0.0
2015-Feb-05 09:27N 44°24' E 008°54'0 0.0
2015-Feb-05 08:24N 44°24' E 008°54'0 0.0
2015-Feb-05 07:33N 44°24' E 008°54'0 0.0
2015-Feb-05 05:21N 44°24' E 008°54'0 0.0
2015-Feb-05 04:24N 44°24' E 008°54'0 0.0
2015-Feb-05 03:30N 44°24' E 008°54'0 0.0
2015-Feb-05 02:33N 44°24' E 008°54'0 0.0
2015-Feb-05 01:33N 44°24' E 008°54'0 0.0
2015-Feb-05 00:33N 44°24' E 008°54'0 0.0
2015-Feb-04 23:33N 44°24' E 008°54'0 0.0
2015-Feb-04 22:33N 44°24' E 008°54'0 0.0
2015-Feb-04 21:30N 44°24' E 008°54'0 0.0
2015-Feb-04 20:24N 44°24' E 008°54'0 0.0
2015-Feb-04 19:32N 44°24' E 008°55'0 0.0
2015-Feb-04 18:32N 44°24' E 008°54'0 0.0
2015-Feb-04 17:32N 44°24' E 008°54'0 0.0
2015-Feb-04 16:29N 44°24' E 008°54'0 0.0
2015-Feb-04 15:32N 44°24' E 008°54'0 0.0
2015-Feb-04 14:29N 44°24' E 008°54'0 0.0
2015-Feb-04 13:29N 44°24' E 008°54'0 0.0
2015-Feb-04 12:32N 44°24' E 008°54'  
Track history (hours):
 
Tides and Currents Weather Stations Pressure Air Temp Water Temp Dewpoint Dewpoint Depression Visibility Wind Speed Wind Dir Waves Ship Positions

Eems Trader

Last reported at 2015-Feb-14 12:27 UTC. Time now 2015-Mar-01 15:14 UTC.
Position N 38°45' E 008°51'.
Warning: this ship's position is 15 days out of date.

; draft 4.3 m.

Type: Cargo ship. MMSI: 305182000.

Date/timePositionNaut miles runAvg speedWind from/ knotsBaromVisibWave heightAir tempDewpointWater temp
2015-Feb-14 12:27N 38°45' E 008°51'240 8.8
2015-Feb-13 09:11N 41°33' E 005°07'105 8.8
2015-Feb-12 21:20N 42°46' E 003°26'23 8.1
2015-Feb-12 18:33N 43°01' E 003°03'0 0.0
2015-Feb-12 15:31N 43°01' E 003°03'0 0.0
2015-Feb-12 14:14N 43°01' E 003°03'0 0.0
2015-Feb-12 11:31N 43°01' E 003°03'0 0.0
2015-Feb-12 10:19N 43°01' E 003°03'0 0.0
2015-Feb-12 09:31N 43°01' E 003°03'0 0.0
2015-Feb-12 08:32N 43°01' E 003°03'0 0.0
2015-Feb-12 07:32N 43°01' E 003°03'0 0.0
2015-Feb-12 06:32N 43°01' E 003°03'3 2.9
2015-Feb-12 05:33N 43°01' E 003°07'0 0.4
2015-Feb-12 04:17N 43°01' E 003°08'0 0.0
2015-Feb-12 03:21N 43°01' E 003°08'0 0.0
2015-Feb-12 02:33N 43°01' E 003°08'0 0.0
2015-Feb-12 00:27N 43°01' E 003°08'0 0.0
2015-Feb-11 19:25N 43°01' E 003°08'0 0.0
2015-Feb-11 16:09N 43°01' E 003°07'0 0.0
2015-Feb-11 12:30N 43°01' E 003°07'0 0.0
2015-Feb-11 09:30N 43°01' E 003°07'0 0.0
2015-Feb-11 01:27N 43°01' E 003°07'0 0.0
2015-Feb-10 17:30N 43°01' E 003°08'0 0.0
2015-Feb-10 16:26N 43°01' E 003°08'3 1.5
2015-Feb-10 14:14N 43°01' E 003°03'0 0.0
2015-Feb-10 11:25N 43°01' E 003°03'0 0.0
2015-Feb-10 07:10N 43°01' E 003°03'0 0.0
2015-Feb-10 06:15N 43°01' E 003°03'0 0.2
2015-Feb-10 05:33N 43°01' E 003°03'3 2.9
2015-Feb-10 04:33N 42°59' E 003°06'0 0.0
2015-Feb-10 03:32N 42°59' E 003°06'0 0.0
2015-Feb-10 02:32N 42°59' E 003°06'0 0.0
2015-Feb-10 00:31N 42°59' E 003°06'0 0.1
2015-Feb-09 22:27N 42°59' E 003°06'17 8.6
2015-Feb-09 20:25N 43°02' E 003°30'9 8.8
2015-Feb-09 19:22N 43°05' E 003°42'11 9.1
2015-Feb-09 18:11N 43°07' E 003°57'6 9.2
2015-Feb-09 17:30N 43°09' E 004°05'10 9.7
2015-Feb-09 16:27N 43°12' E 004°18'10 9.6
2015-Feb-09 15:25N 43°14' E 004°31'9 9.4
2015-Feb-09 14:26N 43°17' E 004°44'8 9.6
2015-Feb-09 13:34N 43°19' E 004°55'6 5.9
2015-Feb-09 12:33N 43°25' E 004°51'0 0.1
2015-Feb-09 11:26N 43°25' E 004°51'0 0.0
2015-Feb-09 10:26N 43°25' E 004°51'0 0.0
2015-Feb-09 09:29N 43°25' E 004°51'0 0.0
2015-Feb-09 08:32N 43°25' E 004°51'0 0.0
2015-Feb-09 07:32N 43°25' E 004°51'0 0.0
2015-Feb-09 06:32N 43°25' E 004°51'0 0.0
2015-Feb-09 05:32N 43°25' E 004°51'0 0.0
2015-Feb-09 04:32N 43°25' E 004°51'0 0.0
2015-Feb-09 03:29N 43°25' E 004°51'0 0.0
2015-Feb-09 02:29N 43°25' E 004°51'0 0.1
2015-Feb-09 01:29N 43°25' E 004°51'0 0.0
2015-Feb-09 00:32N 43°25' E 004°51'0 0.0
2015-Feb-08 23:29N 43°25' E 004°51'0 0.0
2015-Feb-08 22:32N 43°25' E 004°51'0 0.0
2015-Feb-08 21:29N 43°25' E 004°51'0 0.0
2015-Feb-08 20:32N 43°25' E 004°51'0 0.0
2015-Feb-08 19:32N 43°25' E 004°51'0 0.0
2015-Feb-08 18:32N 43°25' E 004°51'0 0.0
2015-Feb-08 17:28N 43°25' E 004°51'0 0.0
2015-Feb-08 16:28N 43°25' E 004°51'0 0.0
2015-Feb-08 15:28N 43°25' E 004°51'0 0.0
2015-Feb-08 14:28N 43°25' E 004°51'0 0.0
2015-Feb-08 13:28N 43°25' E 004°51'0 0.0
2015-Feb-08 12:28N 43°25' E 004°51'0 0.0
2015-Feb-08 11:31N 43°25' E 004°51'0 0.0
2015-Feb-08 10:31N 43°25' E 004°51'0 0.0
2015-Feb-08 09:31N 43°25' E 004°51'0 0.0
2015-Feb-08 08:28N 43°25' E 004°51'0 0.0
2015-Feb-08 07:31N 43°25' E 004°51'0 0.0
2015-Feb-08 06:28N 43°25' E 004°51'0 0.0
2015-Feb-08 05:31N 43°25' E 004°51'0 0.0
2015-Feb-08 04:31N 43°25' E 004°51'0 0.0
2015-Feb-08 03:28N 43°25' E 004°51'0 0.0
2015-Feb-08 02:31N 43°25' E 004°51'0 0.0
2015-Feb-08 01:31N 43°25' E 004°51'0 0.0
2015-Feb-08 00:31N 43°25' E 004°51'0 0.0
2015-Feb-07 23:31N 43°25' E 004°51'0 0.0
2015-Feb-07 22:28N 43°25' E 004°51'0 0.0
2015-Feb-07 21:31N 43°25' E 004°51'0 0.0
2015-Feb-07 20:28N 43°25' E 004°51'0 0.0
2015-Feb-07 19:28N 43°25' E 004°51'0 0.0
2015-Feb-07 18:28N 43°25' E 004°51'0 0.0
2015-Feb-07 17:28N 43°25' E 004°51'0 0.0
2015-Feb-07 16:28N 43°25' E 004°51'0 0.1
2015-Feb-07 15:31N 43°25' E 004°51'0 0.0
2015-Feb-07 14:33N 43°25' E 004°51'8 7.6
2015-Feb-07 13:33N 43°20' E 004°59'11 8.7
2015-Feb-07 12:21N 43°12' E 005°09'35 8.7
2015-Feb-07 08:24N 43°01' E 005°54'4 4.8
2015-Feb-07 07:33N 43°05' E 005°56'2 2.1
2015-Feb-07 06:33N 43°06' E 005°53'0 0.0
2015-Feb-07 05:33N 43°06' E 005°53'0 0.0
2015-Feb-07 04:33N 43°06' E 005°53'0 0.0
2015-Feb-07 03:33N 43°06' E 005°53'0 0.0
2015-Feb-07 02:33N 43°06' E 005°53'0 0.0
2015-Feb-07 01:33N 43°06' E 005°53'0 0.0
2015-Feb-07 00:33N 43°06' E 005°53'0 0.0
2015-Feb-06 23:32N 43°06' E 005°53'0 0.0
2015-Feb-06 22:32N 43°06' E 005°53'0 0.0
2015-Feb-06 21:32N 43°06' E 005°53'0 0.0
2015-Feb-06 20:32N 43°06' E 005°53'0 0.0
2015-Feb-06 19:32N 43°06' E 005°53'0 0.0
2015-Feb-06 18:32N 43°06' E 005°53'0 0.0
2015-Feb-06 17:32N 43°06' E 005°53'0 0.0
2015-Feb-06 16:32N 43°06' E 005°53'0 0.0
2015-Feb-06 15:32N 43°06' E 005°53'0 0.0
2015-Feb-06 14:32N 43°06' E 005°53'0 0.0
2015-Feb-06 13:32N 43°06' E 005°53'0 0.0
2015-Feb-06 12:32N 43°06' E 005°53'2 1.9
2015-Feb-06 11:33N 43°05' E 005°55'25 6.4
2015-Feb-06 07:33N 42°59' E 006°29'9 8.7
2015-Feb-06 06:33N 43°04' E 006°38'8 7.6
2015-Feb-06 05:33N 43°10' E 006°45'7 7.5
2015-Feb-06 04:33N 43°15' E 006°52'8 8.1
2015-Feb-06 03:34N 43°21' E 006°60'8 7.7
2015-Feb-06 02:33N 43°26' E 007°08'8 8.3
2015-Feb-06 01:34N 43°30' E 007°18'8 8.1
2015-Feb-06 00:32N 43°35' E 007°28'8 7.7
2015-Feb-05 23:27N 43°39' E 007°38'48 8.0
2015-Feb-05 17:24N 44°10' E 008°29'8 9.2
2015-Feb-05 16:33N 44°13' E 008°39'9 9.5
2015-Feb-05 15:33N 44°17' E 008°51'8 7.5
2015-Feb-05 14:34N 44°23' E 008°57'2 1.3
2015-Feb-05 13:18N 44°24' E 008°54'0 0.0
2015-Feb-05 11:24N 44°24' E 008°55'0 0.0
2015-Feb-05 10:21N 44°24' E 008°54'0 0.0
2015-Feb-05 09:27N 44°24' E 008°54'0 0.0
2015-Feb-05 08:24N 44°24' E 008°54'0 0.0
2015-Feb-05 07:33N 44°24' E 008°54'0 0.0
2015-Feb-05 05:21N 44°24' E 008°54'0 0.0
2015-Feb-05 04:24N 44°24' E 008°54'0 0.0
2015-Feb-05 03:30N 44°24' E 008°54'0 0.0
2015-Feb-05 02:33N 44°24' E 008°54'0 0.0
2015-Feb-05 01:33N 44°24' E 008°54'0 0.0
2015-Feb-05 00:33N 44°24' E 008°54'0 0.0
2015-Feb-04 23:33N 44°24' E 008°54'0 0.0
2015-Feb-04 22:33N 44°24' E 008°54'0 0.0
2015-Feb-04 21:30N 44°24' E 008°54'0 0.0
2015-Feb-04 20:24N 44°24' E 008°54'0 0.0
2015-Feb-04 19:32N 44°24' E 008°55'0 0.0
2015-Feb-04 18:32N 44°24' E 008°54'0 0.0
2015-Feb-04 17:32N 44°24' E 008°54'0 0.0
2015-Feb-04 16:29N 44°24' E 008°54'0 0.0
2015-Feb-04 15:32N 44°24' E 008°54'0 0.0
2015-Feb-04 14:29N 44°24' E 008°54'0 0.0
2015-Feb-04 13:29N 44°24' E 008°54'0 0.0
2015-Feb-04 12:32N 44°24' E 008°54'  

Dump ship's entire track history